sensor_id;sensor_type;location;lat;lon;timestamp;P1;durP1;ratioP1;P2;durP2;ratioP2
75639;SDS011;64233;51.486;6.332;2023-11-21T00:00:48;13.82;;;7.00;;
75639;SDS011;64233;51.486;6.332;2023-11-21T00:03:13;13.70;;;6.18;;
75639;SDS011;64233;51.486;6.332;2023-11-21T00:05:40;10.65;;;6.30;;
75639;SDS011;64233;51.486;6.332;2023-11-21T00:08:06;12.90;;;7.35;;
75639;SDS011;64233;51.486;6.332;2023-11-21T00:10:32;11.35;;;6.88;;
75639;SDS011;64233;51.486;6.332;2023-11-21T00:12:59;14.30;;;6.75;;
75639;SDS011;64233;51.486;6.332;2023-11-21T00:15:24;11.90;;;5.90;;
75639;SDS011;64233;51.486;6.332;2023-11-21T00:17:49;15.75;;;6.68;;
75639;SDS011;64233;51.486;6.332;2023-11-21T00:20:15;11.95;;;8.48;;
75639;SDS011;64233;51.486;6.332;2023-11-21T00:22:40;17.38;;;8.23;;
75639;SDS011;64233;51.486;6.332;2023-11-21T00:25:06;12.45;;;7.28;;
75639;SDS011;64233;51.486;6.332;2023-11-21T00:27:33;12.80;;;8.20;;
75639;SDS011;64233;51.486;6.332;2023-11-21T00:30:00;13.60;;;7.97;;
75639;SDS011;64233;51.486;6.332;2023-11-21T00:32:25;14.00;;;7.75;;
75639;SDS011;64233;51.486;6.332;2023-11-21T00:34:50;11.25;;;7.43;;
75639;SDS011;64233;51.486;6.332;2023-11-21T00:37:15;13.80;;;7.28;;
75639;SDS011;64233;51.486;6.332;2023-11-21T00:39:41;11.25;;;7.38;;
75639;SDS011;64233;51.486;6.332;2023-11-21T00:42:06;13.98;;;7.70;;
75639;SDS011;64233;51.486;6.332;2023-11-21T00:44:31;13.90;;;7.75;;
75639;SDS011;64233;51.486;6.332;2023-11-21T00:46:58;14.73;;;7.82;;
75639;SDS011;64233;51.486;6.332;2023-11-21T00:49:24;13.43;;;8.13;;
75639;SDS011;64233;51.486;6.332;2023-11-21T00:51:49;10.95;;;6.45;;
75639;SDS011;64233;51.486;6.332;2023-11-21T00:54:14;13.10;;;7.60;;
75639;SDS011;64233;51.486;6.332;2023-11-21T00:56:42;18.58;;;8.02;;
75639;SDS011;64233;51.486;6.332;2023-11-21T00:59:07;15.38;;;7.65;;
75639;SDS011;64233;51.486;6.332;2023-11-21T01:01:32;13.18;;;7.50;;
75639;SDS011;64233;51.486;6.332;2023-11-21T01:03:57;19.08;;;7.43;;
75639;SDS011;64233;51.486;6.332;2023-11-21T01:06:23;13.13;;;8.82;;
75639;SDS011;64233;51.486;6.332;2023-11-21T01:08:48;14.57;;;7.72;;
75639;SDS011;64233;51.486;6.332;2023-11-21T01:11:13;16.02;;;8.25;;
75639;SDS011;64233;51.486;6.332;2023-11-21T01:13:39;16.30;;;9.73;;
75639;SDS011;64233;51.486;6.332;2023-11-21T01:16:05;18.15;;;9.18;;
75639;SDS011;64233;51.486;6.332;2023-11-21T01:18:31;18.83;;;8.90;;
75639;SDS011;64233;51.486;6.332;2023-11-21T01:20:57;22.27;;;10.52;;
75639;SDS011;64233;51.486;6.332;2023-11-21T01:23:22;22.35;;;10.00;;
75639;SDS011;64233;51.486;6.332;2023-11-21T01:25:47;16.33;;;9.30;;
75639;SDS011;64233;51.486;6.332;2023-11-21T01:28:13;23.25;;;10.40;;
75639;SDS011;64233;51.486;6.332;2023-11-21T01:30:38;19.85;;;9.57;;
75639;SDS011;64233;51.486;6.332;2023-11-21T01:33:04;19.73;;;8.88;;
75639;SDS011;64233;51.486;6.332;2023-11-21T01:35:29;17.23;;;9.52;;
75639;SDS011;64233;51.486;6.332;2023-11-21T01:37:55;19.02;;;9.77;;
75639;SDS011;64233;51.486;6.332;2023-11-21T01:40:20;18.38;;;10.68;;
75639;SDS011;64233;51.486;6.332;2023-11-21T01:42:46;17.83;;;9.45;;
75639;SDS011;64233;51.486;6.332;2023-11-21T01:45:12;17.30;;;9.10;;
75639;SDS011;64233;51.486;6.332;2023-11-21T01:47:38;19.33;;;9.88;;
75639;SDS011;64233;51.486;6.332;2023-11-21T01:50:06;18.90;;;8.77;;
75639;SDS011;64233;51.486;6.332;2023-11-21T01:52:31;17.52;;;10.27;;
75639;SDS011;64233;51.486;6.332;2023-11-21T01:54:58;14.70;;;8.32;;
75639;SDS011;64233;51.486;6.332;2023-11-21T01:57:25;18.30;;;8.63;;
75639;SDS011;64233;51.486;6.332;2023-11-21T01:59:50;15.18;;;9.40;;
75639;SDS011;64233;51.486;6.332;2023-11-21T02:02:18;19.38;;;9.18;;
75639;SDS011;64233;51.486;6.332;2023-11-21T02:04:44;16.75;;;8.82;;
75639;SDS011;64233;51.486;6.332;2023-11-21T02:07:09;20.27;;;8.50;;
75639;SDS011;64233;51.486;6.332;2023-11-21T02:09:35;18.20;;;8.95;;
75639;SDS011;64233;51.486;6.332;2023-11-21T02:12:03;17.92;;;9.20;;
75639;SDS011;64233;51.486;6.332;2023-11-21T02:14:29;16.73;;;8.30;;
75639;SDS011;64233;51.486;6.332;2023-11-21T02:16:56;16.17;;;8.65;;
75639;SDS011;64233;51.486;6.332;2023-11-21T02:19:22;16.05;;;8.77;;
75639;SDS011;64233;51.486;6.332;2023-11-21T02:21:50;21.05;;;10.32;;
75639;SDS011;64233;51.486;6.332;2023-11-21T02:24:18;15.35;;;9.75;;
75639;SDS011;64233;51.486;6.332;2023-11-21T02:26:44;18.42;;;8.18;;
75639;SDS011;64233;51.486;6.332;2023-11-21T02:29:10;16.55;;;9.13;;
75639;SDS011;64233;51.486;6.332;2023-11-21T02:31:37;17.88;;;9.23;;
75639;SDS011;64233;51.486;6.332;2023-11-21T02:34:10;15.82;;;9.05;;
75639;SDS011;64233;51.486;6.332;2023-11-21T02:36:38;14.63;;;8.20;;
75639;SDS011;64233;51.486;6.332;2023-11-21T02:39:03;14.30;;;8.65;;
75639;SDS011;64233;51.486;6.332;2023-11-21T02:41:29;18.45;;;10.15;;
75639;SDS011;64233;51.486;6.332;2023-11-21T02:43:54;16.45;;;9.20;;
75639;SDS011;64233;51.486;6.332;2023-11-21T02:46:19;20.13;;;9.57;;
75639;SDS011;64233;51.486;6.332;2023-11-21T02:48:44;19.05;;;10.05;;
75639;SDS011;64233;51.486;6.332;2023-11-21T02:51:10;20.17;;;9.20;;
75639;SDS011;64233;51.486;6.332;2023-11-21T02:53:35;23.63;;;10.75;;
75639;SDS011;64233;51.486;6.332;2023-11-21T02:56:00;23.98;;;9.52;;
75639;SDS011;64233;51.486;6.332;2023-11-21T02:58:26;16.50;;;8.93;;
75639;SDS011;64233;51.486;6.332;2023-11-21T03:00:51;17.42;;;9.85;;
75639;SDS011;64233;51.486;6.332;2023-11-21T03:03:16;16.50;;;8.77;;
75639;SDS011;64233;51.486;6.332;2023-11-21T03:05:42;19.50;;;9.50;;
75639;SDS011;64233;51.486;6.332;2023-11-21T03:08:07;19.17;;;9.35;;
75639;SDS011;64233;51.486;6.332;2023-11-21T03:10:33;23.27;;;9.80;;
75639;SDS011;64233;51.486;6.332;2023-11-21T03:12:58;20.15;;;10.23;;
75639;SDS011;64233;51.486;6.332;2023-11-21T03:15:23;19.67;;;10.55;;
75639;SDS011;64233;51.486;6.332;2023-11-21T03:17:49;17.02;;;9.98;;
75639;SDS011;64233;51.486;6.332;2023-11-21T03:20:14;23.25;;;11.25;;
75639;SDS011;64233;51.486;6.332;2023-11-21T03:22:41;18.55;;;10.43;;
75639;SDS011;64233;51.486;6.332;2023-11-21T03:25:07;17.85;;;9.05;;
75639;SDS011;64233;51.486;6.332;2023-11-21T03:27:35;17.33;;;9.27;;
75639;SDS011;64233;51.486;6.332;2023-11-21T03:30:00;18.35;;;9.73;;
75639;SDS011;64233;51.486;6.332;2023-11-21T03:32:28;25.33;;;10.20;;
75639;SDS011;64233;51.486;6.332;2023-11-21T03:34:54;15.60;;;9.65;;
75639;SDS011;64233;51.486;6.332;2023-11-21T03:37:22;19.98;;;9.52;;
75639;SDS011;64233;51.486;6.332;2023-11-21T03:39:47;23.73;;;10.60;;
75639;SDS011;64233;51.486;6.332;2023-11-21T03:42:12;21.00;;;10.23;;
75639;SDS011;64233;51.486;6.332;2023-11-21T03:44:37;23.33;;;11.10;;
75639;SDS011;64233;51.486;6.332;2023-11-21T03:47:03;25.15;;;11.60;;
75639;SDS011;64233;51.486;6.332;2023-11-21T03:49:28;22.67;;;10.18;;
75639;SDS011;64233;51.486;6.332;2023-11-21T03:51:54;31.63;;;11.77;;
75639;SDS011;64233;51.486;6.332;2023-11-21T03:54:19;27.35;;;10.93;;
75639;SDS011;64233;51.486;6.332;2023-11-21T03:56:45;28.52;;;10.48;;
75639;SDS011;64233;51.486;6.332;2023-11-21T03:59:10;24.45;;;10.50;;
75639;SDS011;64233;51.486;6.332;2023-11-21T04:01:36;22.27;;;11.35;;
75639;SDS011;64233;51.486;6.332;2023-11-21T04:04:01;22.50;;;11.02;;
75639;SDS011;64233;51.486;6.332;2023-11-21T04:06:27;26.95;;;10.90;;
75639;SDS011;64233;51.486;6.332;2023-11-21T04:08:52;27.27;;;11.18;;
75639;SDS011;64233;51.486;6.332;2023-11-21T04:11:18;24.88;;;10.88;;
75639;SDS011;64233;51.486;6.332;2023-11-21T04:13:43;27.70;;;13.05;;
75639;SDS011;64233;51.486;6.332;2023-11-21T04:16:08;24.85;;;11.57;;
75639;SDS011;64233;51.486;6.332;2023-11-21T04:18:37;22.38;;;10.52;;
75639;SDS011;64233;51.486;6.332;2023-11-21T04:21:04;26.02;;;12.20;;
75639;SDS011;64233;51.486;6.332;2023-11-21T04:23:30;22.00;;;10.35;;
75639;SDS011;64233;51.486;6.332;2023-11-21T04:25:56;21.60;;;9.95;;
75639;SDS011;64233;51.486;6.332;2023-11-21T04:28:23;24.13;;;11.50;;
75639;SDS011;64233;51.486;6.332;2023-11-21T04:30:49;25.38;;;11.55;;
75639;SDS011;64233;51.486;6.332;2023-11-21T04:33:15;23.98;;;10.30;;
75639;SDS011;64233;51.486;6.332;2023-11-21T04:35:41;24.30;;;11.25;;
75639;SDS011;64233;51.486;6.332;2023-11-21T04:38:06;27.05;;;10.25;;
75639;SDS011;64233;51.486;6.332;2023-11-21T04:40:31;24.52;;;11.38;;
75639;SDS011;64233;51.486;6.332;2023-11-21T04:42:57;23.27;;;10.52;;
75639;SDS011;64233;51.486;6.332;2023-11-21T04:45:22;22.40;;;10.80;;
75639;SDS011;64233;51.486;6.332;2023-11-21T04:47:47;23.27;;;10.77;;
75639;SDS011;64233;51.486;6.332;2023-11-21T04:50:12;23.00;;;11.15;;
75639;SDS011;64233;51.486;6.332;2023-11-21T04:52:38;23.52;;;10.88;;
75639;SDS011;64233;51.486;6.332;2023-11-21T04:55:03;19.85;;;10.55;;
75639;SDS011;64233;51.486;6.332;2023-11-21T04:57:29;25.67;;;11.50;;
75639;SDS011;64233;51.486;6.332;2023-11-21T04:59:54;27.13;;;11.80;;
75639;SDS011;64233;51.486;6.332;2023-11-21T05:02:19;26.88;;;11.52;;
75639;SDS011;64233;51.486;6.332;2023-11-21T05:04:46;25.92;;;11.18;;
75639;SDS011;64233;51.486;6.332;2023-11-21T05:07:11;23.92;;;10.32;;
75639;SDS011;64233;51.486;6.332;2023-11-21T05:09:40;20.83;;;10.80;;
75639;SDS011;64233;51.486;6.332;2023-11-21T05:12:06;26.40;;;10.20;;
75639;SDS011;64233;51.486;6.332;2023-11-21T05:14:32;23.50;;;10.57;;
75639;SDS011;64233;51.486;6.332;2023-11-21T05:16:58;24.58;;;11.15;;
75639;SDS011;64233;51.486;6.332;2023-11-21T05:19:24;27.08;;;10.63;;
75639;SDS011;64233;51.486;6.332;2023-11-21T05:21:49;19.58;;;9.80;;
75639;SDS011;64233;51.486;6.332;2023-11-21T05:24:14;20.65;;;10.32;;
75639;SDS011;64233;51.486;6.332;2023-11-21T05:26:40;25.98;;;10.75;;
75639;SDS011;64233;51.486;6.332;2023-11-21T05:29:05;21.35;;;9.60;;
75639;SDS011;64233;51.486;6.332;2023-11-21T05:31:31;21.88;;;10.13;;
75639;SDS011;64233;51.486;6.332;2023-11-21T05:33:56;23.17;;;10.63;;
75639;SDS011;64233;51.486;6.332;2023-11-21T05:36:21;21.35;;;10.55;;
75639;SDS011;64233;51.486;6.332;2023-11-21T05:38:46;23.83;;;10.52;;
75639;SDS011;64233;51.486;6.332;2023-11-21T05:41:12;27.52;;;10.55;;
75639;SDS011;64233;51.486;6.332;2023-11-21T05:43:38;18.38;;;9.75;;
75639;SDS011;64233;51.486;6.332;2023-11-21T05:46:04;24.40;;;11.25;;
75639;SDS011;64233;51.486;6.332;2023-11-21T05:48:31;20.45;;;10.20;;
75639;SDS011;64233;51.486;6.332;2023-11-21T05:50:57;20.98;;;10.45;;
75639;SDS011;64233;51.486;6.332;2023-11-21T05:53:22;19.88;;;9.75;;
75639;SDS011;64233;51.486;6.332;2023-11-21T05:55:47;19.75;;;9.93;;
75639;SDS011;64233;51.486;6.332;2023-11-21T05:58:13;23.45;;;10.00;;
75639;SDS011;64233;51.486;6.332;2023-11-21T06:00:38;21.88;;;9.45;;
75639;SDS011;64233;51.486;6.332;2023-11-21T06:03:04;22.92;;;11.23;;
75639;SDS011;64233;51.486;6.332;2023-11-21T06:05:31;20.58;;;9.40;;
75639;SDS011;64233;51.486;6.332;2023-11-21T06:07:58;22.92;;;10.57;;
75639;SDS011;64233;51.486;6.332;2023-11-21T06:10:24;24.10;;;10.43;;
75639;SDS011;64233;51.486;6.332;2023-11-21T06:12:49;27.25;;;11.75;;
75639;SDS011;64233;51.486;6.332;2023-11-21T06:15:15;24.83;;;11.57;;
75639;SDS011;64233;51.486;6.332;2023-11-21T06:17:41;21.70;;;10.82;;
75639;SDS011;64233;51.486;6.332;2023-11-21T06:20:08;21.38;;;10.98;;
75639;SDS011;64233;51.486;6.332;2023-11-21T06:22:38;26.92;;;11.82;;
75639;SDS011;64233;51.486;6.332;2023-11-21T06:25:04;26.38;;;11.73;;
75639;SDS011;64233;51.486;6.332;2023-11-21T06:27:34;24.75;;;12.15;;
75639;SDS011;64233;51.486;6.332;2023-11-21T06:30:02;25.65;;;11.02;;
75639;SDS011;64233;51.486;6.332;2023-11-21T06:32:28;26.10;;;12.50;;
75639;SDS011;64233;51.486;6.332;2023-11-21T06:34:54;21.75;;;10.75;;
75639;SDS011;64233;51.486;6.332;2023-11-21T06:37:20;22.45;;;9.80;;
75639;SDS011;64233;51.486;6.332;2023-11-21T06:39:49;22.73;;;11.68;;
75639;SDS011;64233;51.486;6.332;2023-11-21T06:42:17;16.92;;;8.57;;
75639;SDS011;64233;51.486;6.332;2023-11-21T06:44:42;23.40;;;10.45;;
75639;SDS011;64233;51.486;6.332;2023-11-21T06:47:08;20.67;;;9.80;;
75639;SDS011;64233;51.486;6.332;2023-11-21T06:49:33;23.88;;;10.35;;
75639;SDS011;64233;51.486;6.332;2023-11-21T06:51:59;19.63;;;9.05;;
75639;SDS011;64233;51.486;6.332;2023-11-21T06:54:26;19.75;;;10.07;;
75639;SDS011;64233;51.486;6.332;2023-11-21T06:56:51;19.00;;;9.77;;
75639;SDS011;64233;51.486;6.332;2023-11-21T06:59:18;21.63;;;11.05;;
75639;SDS011;64233;51.486;6.332;2023-11-21T07:01:43;19.33;;;10.32;;
75639;SDS011;64233;51.486;6.332;2023-11-21T07:04:09;20.98;;;10.85;;
75639;SDS011;64233;51.486;6.332;2023-11-21T07:06:34;21.90;;;10.45;;
75639;SDS011;64233;51.486;6.332;2023-11-21T07:09:00;26.17;;;11.65;;
75639;SDS011;64233;51.486;6.332;2023-11-21T07:11:26;20.13;;;11.20;;
75639;SDS011;64233;51.486;6.332;2023-11-21T07:13:52;22.58;;;10.95;;
75639;SDS011;64233;51.486;6.332;2023-11-21T07:16:17;22.58;;;9.77;;
75639;SDS011;64233;51.486;6.332;2023-11-21T07:18:43;24.13;;;11.23;;
75639;SDS011;64233;51.486;6.332;2023-11-21T07:21:09;19.75;;;10.65;;
75639;SDS011;64233;51.486;6.332;2023-11-21T07:23:36;19.67;;;11.00;;
75639;SDS011;64233;51.486;6.332;2023-11-21T07:26:02;26.95;;;11.18;;
75639;SDS011;64233;51.486;6.332;2023-11-21T07:28:28;24.10;;;11.30;;
75639;SDS011;64233;51.486;6.332;2023-11-21T07:30:54;21.85;;;11.75;;
75639;SDS011;64233;51.486;6.332;2023-11-21T07:33:19;23.00;;;11.73;;
75639;SDS011;64233;51.486;6.332;2023-11-21T07:35:44;26.20;;;12.40;;
75639;SDS011;64233;51.486;6.332;2023-11-21T07:38:09;24.13;;;12.52;;
75639;SDS011;64233;51.486;6.332;2023-11-21T07:40:35;23.15;;;10.80;;
75639;SDS011;64233;51.486;6.332;2023-11-21T07:43:00;27.08;;;13.00;;
75639;SDS011;64233;51.486;6.332;2023-11-21T07:45:25;25.88;;;11.48;;
75639;SDS011;64233;51.486;6.332;2023-11-21T07:47:53;27.30;;;11.60;;
75639;SDS011;64233;51.486;6.332;2023-11-21T07:50:19;26.13;;;12.10;;
75639;SDS011;64233;51.486;6.332;2023-11-21T07:52:45;26.73;;;11.48;;
75639;SDS011;64233;51.486;6.332;2023-11-21T07:55:10;26.65;;;12.88;;
75639;SDS011;64233;51.486;6.332;2023-11-21T07:57:36;25.92;;;11.95;;
75639;SDS011;64233;51.486;6.332;2023-11-21T08:00:01;25.50;;;13.13;;
75639;SDS011;64233;51.486;6.332;2023-11-21T08:02:28;32.15;;;13.70;;
75639;SDS011;64233;51.486;6.332;2023-11-21T08:04:54;28.83;;;13.43;;
75639;SDS011;64233;51.486;6.332;2023-11-21T08:07:21;30.92;;;13.07;;
75639;SDS011;64233;51.486;6.332;2023-11-21T08:09:46;28.90;;;12.35;;
75639;SDS011;64233;51.486;6.332;2023-11-21T08:12:14;25.67;;;12.15;;
75639;SDS011;64233;51.486;6.332;2023-11-21T08:14:39;27.65;;;12.98;;
75639;SDS011;64233;51.486;6.332;2023-11-21T08:17:05;23.35;;;11.30;;
75639;SDS011;64233;51.486;6.332;2023-11-21T08:19:31;32.58;;;13.35;;
75639;SDS011;64233;51.486;6.332;2023-11-21T08:21:57;30.55;;;11.85;;
75639;SDS011;64233;51.486;6.332;2023-11-21T08:24:24;21.98;;;11.27;;
75639;SDS011;64233;51.486;6.332;2023-11-21T08:26:49;31.00;;;13.88;;
75639;SDS011;64233;51.486;6.332;2023-11-21T08:29:15;26.00;;;11.85;;
75639;SDS011;64233;51.486;6.332;2023-11-21T08:31:41;24.10;;;11.38;;
75639;SDS011;64233;51.486;6.332;2023-11-21T08:34:07;30.55;;;12.75;;
75639;SDS011;64233;51.486;6.332;2023-11-21T08:36:33;25.80;;;11.93;;
75639;SDS011;64233;51.486;6.332;2023-11-21T08:38:58;29.83;;;11.77;;
75639;SDS011;64233;51.486;6.332;2023-11-21T08:41:24;29.85;;;13.35;;
75639;SDS011;64233;51.486;6.332;2023-11-21T08:43:50;25.88;;;11.70;;
75639;SDS011;64233;51.486;6.332;2023-11-21T08:46:16;28.08;;;11.73;;
75639;SDS011;64233;51.486;6.332;2023-11-21T08:48:43;27.13;;;12.18;;
75639;SDS011;64233;51.486;6.332;2023-11-21T08:51:09;30.10;;;12.25;;
75639;SDS011;64233;51.486;6.332;2023-11-21T08:53:36;35.58;;;12.50;;
75639;SDS011;64233;51.486;6.332;2023-11-21T08:56:02;23.27;;;10.70;;
75639;SDS011;64233;51.486;6.332;2023-11-21T08:58:29;30.23;;;12.88;;
75639;SDS011;64233;51.486;6.332;2023-11-21T09:00:55;23.50;;;11.85;;
75639;SDS011;64233;51.486;6.332;2023-11-21T09:03:21;28.48;;;11.38;;
75639;SDS011;64233;51.486;6.332;2023-11-21T09:05:46;24.45;;;11.65;;
75639;SDS011;64233;51.486;6.332;2023-11-21T09:08:12;28.17;;;11.93;;
75639;SDS011;64233;51.486;6.332;2023-11-21T09:10:37;25.20;;;11.55;;
75639;SDS011;64233;51.486;6.332;2023-11-21T09:13:04;23.05;;;10.93;;
75639;SDS011;64233;51.486;6.332;2023-11-21T09:15:29;26.83;;;11.88;;
75639;SDS011;64233;51.486;6.332;2023-11-21T09:17:55;21.25;;;11.73;;
75639;SDS011;64233;51.486;6.332;2023-11-21T09:20:21;25.52;;;11.30;;
75639;SDS011;64233;51.486;6.332;2023-11-21T09:22:48;28.58;;;12.15;;
75639;SDS011;64233;51.486;6.332;2023-11-21T09:25:14;28.85;;;12.43;;
75639;SDS011;64233;51.486;6.332;2023-11-21T09:27:39;29.08;;;13.73;;
75639;SDS011;64233;51.486;6.332;2023-11-21T09:30:06;38.28;;;12.73;;
75639;SDS011;64233;51.486;6.332;2023-11-21T09:32:34;27.30;;;10.70;;
75639;SDS011;64233;51.486;6.332;2023-11-21T09:35:02;32.75;;;12.40;;
75639;SDS011;64233;51.486;6.332;2023-11-21T09:37:27;30.73;;;13.38;;
75639;SDS011;64233;51.486;6.332;2023-11-21T09:39:53;27.00;;;12.70;;
75639;SDS011;64233;51.486;6.332;2023-11-21T09:42:23;31.85;;;14.35;;
75639;SDS011;64233;51.486;6.332;2023-11-21T09:45:03;31.15;;;13.77;;
75639;SDS011;64233;51.486;6.332;2023-11-21T09:47:35;23.75;;;10.73;;
75639;SDS011;64233;51.486;6.332;2023-11-21T09:50:03;29.25;;;12.80;;
75639;SDS011;64233;51.486;6.332;2023-11-21T09:52:32;26.73;;;12.50;;
75639;SDS011;64233;51.486;6.332;2023-11-21T09:55:13;27.33;;;12.18;;
75639;SDS011;64233;51.486;6.332;2023-11-21T09:57:41;28.77;;;14.32;;
75639;SDS011;64233;51.486;6.332;2023-11-21T10:00:07;27.98;;;12.02;;
75639;SDS011;64233;51.486;6.332;2023-11-21T10:02:36;26.42;;;12.18;;
75639;SDS011;64233;51.486;6.332;2023-11-21T10:05:03;21.80;;;10.57;;
75639;SDS011;64233;51.486;6.332;2023-11-21T10:07:28;27.88;;;13.02;;
75639;SDS011;64233;51.486;6.332;2023-11-21T10:09:56;25.38;;;12.00;;
75639;SDS011;64233;51.486;6.332;2023-11-21T10:12:24;25.98;;;12.50;;
75639;SDS011;64233;51.486;6.332;2023-11-21T10:14:51;24.70;;;12.57;;
75639;SDS011;64233;51.486;6.332;2023-11-21T10:17:19;26.10;;;12.20;;
75639;SDS011;64233;51.486;6.332;2023-11-21T10:19:48;27.85;;;12.57;;
75639;SDS011;64233;51.486;6.332;2023-11-21T10:22:17;28.10;;;14.43;;
75639;SDS011;64233;51.486;6.332;2023-11-21T10:24:42;29.60;;;13.60;;
75639;SDS011;64233;51.486;6.332;2023-11-21T10:27:08;24.75;;;12.75;;
75639;SDS011;64233;51.486;6.332;2023-11-21T10:29:33;26.08;;;13.18;;
75639;SDS011;64233;51.486;6.332;2023-11-21T10:32:01;21.55;;;11.40;;
75639;SDS011;64233;51.486;6.332;2023-11-21T10:34:27;28.15;;;13.18;;
75639;SDS011;64233;51.486;6.332;2023-11-21T10:36:53;25.50;;;13.45;;
75639;SDS011;64233;51.486;6.332;2023-11-21T10:39:18;27.42;;;13.27;;
75639;SDS011;64233;51.486;6.332;2023-11-21T10:41:49;26.77;;;13.27;;
75639;SDS011;64233;51.486;6.332;2023-11-21T10:44:16;25.83;;;13.45;;
75639;SDS011;64233;51.486;6.332;2023-11-21T10:46:49;21.00;;;11.50;;
75639;SDS011;64233;51.486;6.332;2023-11-21T10:49:26;21.05;;;12.07;;
75639;SDS011;64233;51.486;6.332;2023-11-21T10:51:54;32.25;;;12.25;;
75639;SDS011;64233;51.486;6.332;2023-11-21T10:54:21;27.20;;;12.55;;
75639;SDS011;64233;51.486;6.332;2023-11-21T10:56:49;26.45;;;13.20;;
75639;SDS011;64233;51.486;6.332;2023-11-21T10:59:16;25.40;;;10.65;;
75639;SDS011;64233;51.486;6.332;2023-11-21T11:01:42;25.52;;;12.15;;
75639;SDS011;64233;51.486;6.332;2023-11-21T11:04:10;19.75;;;10.88;;
75639;SDS011;64233;51.486;6.332;2023-11-21T11:06:42;24.85;;;12.70;;
75639;SDS011;64233;51.486;6.332;2023-11-21T11:09:08;18.08;;;9.38;;
75639;SDS011;64233;51.486;6.332;2023-11-21T11:11:38;23.02;;;11.80;;
75639;SDS011;64233;51.486;6.332;2023-11-21T11:14:06;23.08;;;11.80;;
75639;SDS011;64233;51.486;6.332;2023-11-21T11:16:35;22.20;;;11.18;;
75639;SDS011;64233;51.486;6.332;2023-11-21T11:19:02;23.38;;;11.73;;
75639;SDS011;64233;51.486;6.332;2023-11-21T11:21:31;26.15;;;11.88;;
75639;SDS011;64233;51.486;6.332;2023-11-21T11:26:52;17.42;;;9.82;;
75639;SDS011;64233;51.486;6.332;2023-11-21T11:32:09;22.92;;;10.27;;
75639;SDS011;64233;51.486;6.332;2023-11-21T11:34:58;23.75;;;10.90;;
75639;SDS011;64233;51.486;6.332;2023-11-21T11:37:29;20.83;;;11.80;;
75639;SDS011;64233;51.486;6.332;2023-11-21T11:39:54;22.52;;;11.85;;
75639;SDS011;64233;51.486;6.332;2023-11-21T11:42:20;22.83;;;10.98;;
75639;SDS011;64233;51.486;6.332;2023-11-21T11:44:47;23.63;;;11.40;;
75639;SDS011;64233;51.486;6.332;2023-11-21T11:47:19;20.15;;;10.73;;
75639;SDS011;64233;51.486;6.332;2023-11-21T11:50:00;28.30;;;12.23;;
75639;SDS011;64233;51.486;6.332;2023-11-21T11:52:33;24.30;;;11.85;;
75639;SDS011;64233;51.486;6.332;2023-11-21T11:55:00;30.10;;;13.43;;
75639;SDS011;64233;51.486;6.332;2023-11-21T11:57:29;23.80;;;11.90;;
75639;SDS011;64233;51.486;6.332;2023-11-21T12:00:08;26.50;;;13.13;;
75639;SDS011;64233;51.486;6.332;2023-11-21T12:02:37;28.77;;;13.75;;
75639;SDS011;64233;51.486;6.332;2023-11-21T12:05:10;29.38;;;12.70;;
75639;SDS011;64233;51.486;6.332;2023-11-21T12:07:56;21.20;;;11.35;;
75639;SDS011;64233;51.486;6.332;2023-11-21T12:10:24;17.50;;;10.25;;
75639;SDS011;64233;51.486;6.332;2023-11-21T12:12:52;21.67;;;9.77;;
75639;SDS011;64233;51.486;6.332;2023-11-21T12:15:18;19.90;;;9.38;;
75639;SDS011;64233;51.486;6.332;2023-11-21T12:17:44;20.65;;;9.40;;
75639;SDS011;64233;51.486;6.332;2023-11-21T12:20:11;15.15;;;7.28;;
75639;SDS011;64233;51.486;6.332;2023-11-21T12:22:58;17.42;;;9.60;;
75639;SDS011;64233;51.486;6.332;2023-11-21T12:25:28;18.55;;;9.43;;
75639;SDS011;64233;51.486;6.332;2023-11-21T12:27:56;17.42;;;8.73;;
75639;SDS011;64233;51.486;6.332;2023-11-21T12:30:23;18.23;;;8.98;;
75639;SDS011;64233;51.486;6.332;2023-11-21T12:32:53;15.43;;;7.82;;
75639;SDS011;64233;51.486;6.332;2023-11-21T12:35:21;16.65;;;8.77;;
75639;SDS011;64233;51.486;6.332;2023-11-21T12:37:49;20.77;;;10.50;;
75639;SDS011;64233;51.486;6.332;2023-11-21T12:40:15;18.65;;;9.65;;
75639;SDS011;64233;51.486;6.332;2023-11-21T12:42:42;21.13;;;11.23;;
75639;SDS011;64233;51.486;6.332;2023-11-21T12:45:22;21.05;;;9.80;;
75639;SDS011;64233;51.486;6.332;2023-11-21T12:47:51;21.65;;;8.65;;
75639;SDS011;64233;51.486;6.332;2023-11-21T12:50:20;16.67;;;9.43;;
75639;SDS011;64233;51.486;6.332;2023-11-21T12:52:49;17.15;;;9.63;;
75639;SDS011;64233;51.486;6.332;2023-11-21T12:55:17;18.40;;;8.63;;
75639;SDS011;64233;51.486;6.332;2023-11-21T12:57:47;15.48;;;7.72;;
75639;SDS011;64233;51.486;6.332;2023-11-21T13:00:17;13.32;;;7.30;;
75639;SDS011;64233;51.486;6.332;2023-11-21T13:02:53;14.95;;;7.70;;
75639;SDS011;64233;51.486;6.332;2023-11-21T13:05:32;14.07;;;6.97;;
75639;SDS011;64233;51.486;6.332;2023-11-21T13:08:01;16.42;;;8.27;;
75639;SDS011;64233;51.486;6.332;2023-11-21T13:10:31;15.05;;;7.90;;
75639;SDS011;64233;51.486;6.332;2023-11-21T13:13:04;16.95;;;9.63;;
75639;SDS011;64233;51.486;6.332;2023-11-21T13:15:33;13.70;;;6.35;;
75639;SDS011;64233;51.486;6.332;2023-11-21T13:18:01;12.57;;;6.38;;
75639;SDS011;64233;51.486;6.332;2023-11-21T13:20:27;15.38;;;7.28;;
75639;SDS011;64233;51.486;6.332;2023-11-21T13:22:54;16.95;;;8.25;;
75639;SDS011;64233;51.486;6.332;2023-11-21T13:25:30;15.32;;;7.70;;
75639;SDS011;64233;51.486;6.332;2023-11-21T13:27:56;18.60;;;8.82;;
75639;SDS011;64233;51.486;6.332;2023-11-21T13:30:23;21.40;;;11.73;;
75639;SDS011;64233;51.486;6.332;2023-11-21T13:33:01;17.45;;;8.77;;
75639;SDS011;64233;51.486;6.332;2023-11-21T13:35:29;19.95;;;9.85;;
75639;SDS011;64233;51.486;6.332;2023-11-21T13:37:57;19.13;;;9.90;;
75639;SDS011;64233;51.486;6.332;2023-11-21T13:40:29;16.27;;;8.40;;
75639;SDS011;64233;51.486;6.332;2023-11-21T13:42:54;27.70;;;10.15;;
75639;SDS011;64233;51.486;6.332;2023-11-21T13:45:21;22.95;;;9.43;;
75639;SDS011;64233;51.486;6.332;2023-11-21T13:47:48;17.40;;;9.30;;
75639;SDS011;64233;51.486;6.332;2023-11-21T13:50:16;22.65;;;11.13;;
75639;SDS011;64233;51.486;6.332;2023-11-21T13:52:47;24.05;;;9.82;;
75639;SDS011;64233;51.486;6.332;2023-11-21T13:55:12;19.48;;;9.27;;
75639;SDS011;64233;51.486;6.332;2023-11-21T13:57:42;19.27;;;9.68;;
75639;SDS011;64233;51.486;6.332;2023-11-21T14:00:12;19.80;;;8.65;;
75639;SDS011;64233;51.486;6.332;2023-11-21T14:02:57;14.40;;;6.10;;
75639;SDS011;64233;51.486;6.332;2023-11-21T14:05:25;15.82;;;7.60;;
75639;SDS011;64233;51.486;6.332;2023-11-21T14:07:54;16.10;;;8.20;;
75639;SDS011;64233;51.486;6.332;2023-11-21T14:10:21;21.95;;;9.80;;
75639;SDS011;64233;51.486;6.332;2023-11-21T14:12:49;19.80;;;9.70;;
75639;SDS011;64233;51.486;6.332;2023-11-21T14:15:15;21.88;;;10.48;;
75639;SDS011;64233;51.486;6.332;2023-11-21T14:17:43;20.45;;;9.90;;
75639;SDS011;64233;51.486;6.332;2023-11-21T14:20:09;25.80;;;10.35;;
75639;SDS011;64233;51.486;6.332;2023-11-21T14:22:41;17.40;;;9.05;;
75639;SDS011;64233;51.486;6.332;2023-11-21T14:25:06;21.98;;;9.50;;
75639;SDS011;64233;51.486;6.332;2023-11-21T14:27:32;20.67;;;9.07;;
75639;SDS011;64233;51.486;6.332;2023-11-21T14:29:58;14.07;;;6.30;;